Terminal Aerodrome Forecast
Issued by NWS Sterling, VA

Current Version | Previous Version | Text Only | Print | Product List | Glossary Off
Versions: 1 2 3 4 5 6 7 8 9 10 11 12 13 14 15 16 17 18 19 20 21 22 23 24 25 26 27 28 29 30 31 32 33

000
FTUS41 KLWX 272345
TAFIAD
TAF
KIAD 272345Z 2800/2906 03009KT P6SM -RA OVC005
     FM280500 00000KT 3SM -SHRA BR BKN060
     FM280900 28008KT P6SM -SHRA SCT090
     FM281200 26009KT P6SM SCT250
     FM281700 26011G26KT P6SM BKN060
     FM282200 29015KT P6SM SCT250=

USA.gov is the U.S. government's official web portal to all federal, state and local government web resources and services.